sensor_id;sensor_type;location;lat;lon;timestamp;P1;durP1;ratioP1;P2;durP2;ratioP2
13816;SDS011;6979;52.116;5.286;2023-01-31T00:01:04;6.13;;;2.57;;
13816;SDS011;6979;52.116;5.286;2023-01-31T00:03:35;6.63;;;2.20;;
13816;SDS011;6979;52.116;5.286;2023-01-31T00:06:09;6.47;;;2.47;;
13816;SDS011;6979;52.116;5.286;2023-01-31T00:08:37;5.53;;;2.30;;
13816;SDS011;6979;52.116;5.286;2023-01-31T00:11:05;6.07;;;2.70;;
13816;SDS011;6979;52.116;5.286;2023-01-31T00:13:32;6.87;;;2.70;;
13816;SDS011;6979;52.116;5.286;2023-01-31T00:15:59;6.20;;;2.43;;
13816;SDS011;6979;52.116;5.286;2023-01-31T00:18:26;7.83;;;2.30;;
13816;SDS011;6979;52.116;5.286;2023-01-31T00:20:54;8.10;;;2.73;;
13816;SDS011;6979;52.116;5.286;2023-01-31T00:23:21;7.03;;;2.27;;
13816;SDS011;6979;52.116;5.286;2023-01-31T00:25:48;6.00;;;2.40;;
13816;SDS011;6979;52.116;5.286;2023-01-31T00:28:16;10.43;;;2.80;;
13816;SDS011;6979;52.116;5.286;2023-01-31T00:30:43;7.73;;;2.23;;
13816;SDS011;6979;52.116;5.286;2023-01-31T00:33:10;7.30;;;3.17;;
13816;SDS011;6979;52.116;5.286;2023-01-31T00:35:37;5.40;;;1.93;;
13816;SDS011;6979;52.116;5.286;2023-01-31T00:38:05;10.23;;;3.13;;
13816;SDS011;6979;52.116;5.286;2023-01-31T00:40:32;6.10;;;2.00;;
13816;SDS011;6979;52.116;5.286;2023-01-31T00:42:59;6.57;;;2.27;;
13816;SDS011;6979;52.116;5.286;2023-01-31T00:45:32;5.43;;;2.47;;
13816;SDS011;6979;52.116;5.286;2023-01-31T00:47:59;7.03;;;2.40;;
13816;SDS011;6979;52.116;5.286;2023-01-31T00:50:26;7.60;;;2.83;;
13816;SDS011;6979;52.116;5.286;2023-01-31T00:52:53;10.03;;;2.50;;
13816;SDS011;6979;52.116;5.286;2023-01-31T00:55:23;5.37;;;2.20;;
13816;SDS011;6979;52.116;5.286;2023-01-31T00:57:50;6.07;;;2.10;;
13816;SDS011;6979;52.116;5.286;2023-01-31T01:00:17;5.40;;;2.70;;
13816;SDS011;6979;52.116;5.286;2023-01-31T01:02:45;6.07;;;1.97;;
13816;SDS011;6979;52.116;5.286;2023-01-31T01:05:12;8.47;;;2.70;;
13816;SDS011;6979;52.116;5.286;2023-01-31T01:07:39;8.13;;;3.10;;
13816;SDS011;6979;52.116;5.286;2023-01-31T01:10:06;9.63;;;2.57;;
13816;SDS011;6979;52.116;5.286;2023-01-31T01:12:34;5.97;;;2.30;;
13816;SDS011;6979;52.116;5.286;2023-01-31T01:15:01;7.30;;;2.70;;
13816;SDS011;6979;52.116;5.286;2023-01-31T01:17:28;7.73;;;2.50;;
13816;SDS011;6979;52.116;5.286;2023-01-31T01:19:58;7.57;;;3.37;;
13816;SDS011;6979;52.116;5.286;2023-01-31T01:22:27;7.13;;;2.53;;
13816;SDS011;6979;52.116;5.286;2023-01-31T01:24:56;5.73;;;2.23;;
13816;SDS011;6979;52.116;5.286;2023-01-31T01:27:23;11.80;;;2.77;;
13816;SDS011;6979;52.116;5.286;2023-01-31T01:29:51;11.43;;;2.83;;
13816;SDS011;6979;52.116;5.286;2023-01-31T01:32:18;4.40;;;2.10;;
13816;SDS011;6979;52.116;5.286;2023-01-31T01:34:45;7.53;;;3.03;;
13816;SDS011;6979;52.116;5.286;2023-01-31T01:37:13;10.07;;;3.20;;
13816;SDS011;6979;52.116;5.286;2023-01-31T01:39:44;9.17;;;2.50;;
13816;SDS011;6979;52.116;5.286;2023-01-31T01:42:13;6.20;;;2.53;;
13816;SDS011;6979;52.116;5.286;2023-01-31T01:44:48;5.63;;;2.90;;
13816;SDS011;6979;52.116;5.286;2023-01-31T01:50:06;6.40;;;2.57;;
13816;SDS011;6979;52.116;5.286;2023-01-31T01:52:39;6.67;;;2.70;;
13816;SDS011;6979;52.116;5.286;2023-01-31T01:55:13;8.53;;;2.77;;
13816;SDS011;6979;52.116;5.286;2023-01-31T01:57:45;8.60;;;2.20;;
13816;SDS011;6979;52.116;5.286;2023-01-31T02:00:18;8.57;;;2.50;;
13816;SDS011;6979;52.116;5.286;2023-01-31T02:02:47;5.17;;;2.40;;
13816;SDS011;6979;52.116;5.286;2023-01-31T02:05:19;11.87;;;4.50;;
13816;SDS011;6979;52.116;5.286;2023-01-31T02:07:50;8.50;;;3.17;;
13816;SDS011;6979;52.116;5.286;2023-01-31T02:10:20;6.47;;;2.47;;
13816;SDS011;6979;52.116;5.286;2023-01-31T02:12:49;7.60;;;2.30;;
13816;SDS011;6979;52.116;5.286;2023-01-31T02:15:17;4.83;;;2.47;;
13816;SDS011;6979;52.116;5.286;2023-01-31T02:17:44;12.90;;;3.20;;
13816;SDS011;6979;52.116;5.286;2023-01-31T02:20:15;6.80;;;2.90;;
13816;SDS011;6979;52.116;5.286;2023-01-31T02:22:55;6.17;;;2.90;;
13816;SDS011;6979;52.116;5.286;2023-01-31T02:25:52;9.67;;;3.23;;
13816;SDS011;6979;52.116;5.286;2023-01-31T02:28:44;9.43;;;3.17;;
13816;SDS011;6979;52.116;5.286;2023-01-31T02:34:25;7.10;;;2.80;;
13816;SDS011;6979;52.116;5.286;2023-01-31T02:37:01;10.27;;;3.53;;
13816;SDS011;6979;52.116;5.286;2023-01-31T02:39:40;8.77;;;3.23;;
13816;SDS011;6979;52.116;5.286;2023-01-31T02:42:15;7.07;;;2.63;;
13816;SDS011;6979;52.116;5.286;2023-01-31T02:44:49;11.63;;;3.47;;
13816;SDS011;6979;52.116;5.286;2023-01-31T02:47:30;10.40;;;3.50;;
13816;SDS011;6979;52.116;5.286;2023-01-31T02:50:10;7.90;;;4.17;;
13816;SDS011;6979;52.116;5.286;2023-01-31T02:52:44;9.07;;;3.40;;
13816;SDS011;6979;52.116;5.286;2023-01-31T02:55:15;5.93;;;3.20;;
13816;SDS011;6979;52.116;5.286;2023-01-31T02:58:05;10.20;;;3.17;;
13816;SDS011;6979;52.116;5.286;2023-01-31T03:00:34;11.40;;;4.63;;
13816;SDS011;6979;52.116;5.286;2023-01-31T03:03:05;10.43;;;3.73;;
13816;SDS011;6979;52.116;5.286;2023-01-31T03:05:34;8.93;;;4.13;;
13816;SDS011;6979;52.116;5.286;2023-01-31T03:08:01;7.83;;;3.57;;
13816;SDS011;6979;52.116;5.286;2023-01-31T03:10:35;6.43;;;3.73;;
13816;SDS011;6979;52.116;5.286;2023-01-31T03:13:25;13.27;;;4.37;;
13816;SDS011;6979;52.116;5.286;2023-01-31T03:16:02;9.40;;;4.37;;
13816;SDS011;6979;52.116;5.286;2023-01-31T03:19:02;11.53;;;4.07;;
13816;SDS011;6979;52.116;5.286;2023-01-31T03:21:40;9.13;;;3.97;;
13816;SDS011;6979;52.116;5.286;2023-01-31T03:24:11;10.37;;;3.83;;
13816;SDS011;6979;52.116;5.286;2023-01-31T03:26:40;14.47;;;5.90;;
13816;SDS011;6979;52.116;5.286;2023-01-31T03:29:08;11.23;;;4.93;;
13816;SDS011;6979;52.116;5.286;2023-01-31T03:31:40;10.57;;;4.20;;
13816;SDS011;6979;52.116;5.286;2023-01-31T03:34:10;9.67;;;4.43;;
13816;SDS011;6979;52.116;5.286;2023-01-31T03:36:40;12.87;;;5.47;;
13816;SDS011;6979;52.116;5.286;2023-01-31T03:39:31;12.10;;;4.83;;
13816;SDS011;6979;52.116;5.286;2023-01-31T03:42:06;14.60;;;5.63;;
13816;SDS011;6979;52.116;5.286;2023-01-31T03:44:38;12.47;;;4.73;;
13816;SDS011;6979;52.116;5.286;2023-01-31T03:47:11;15.40;;;5.33;;
13816;SDS011;6979;52.116;5.286;2023-01-31T03:49:42;16.17;;;4.90;;
13816;SDS011;6979;52.116;5.286;2023-01-31T03:52:14;13.50;;;4.73;;
13816;SDS011;6979;52.116;5.286;2023-01-31T03:54:48;11.37;;;5.77;;
13816;SDS011;6979;52.116;5.286;2023-01-31T03:57:20;11.70;;;4.63;;
13816;SDS011;6979;52.116;5.286;2023-01-31T03:59:51;9.70;;;4.83;;
13816;SDS011;6979;52.116;5.286;2023-01-31T04:02:24;13.43;;;5.43;;
13816;SDS011;6979;52.116;5.286;2023-01-31T04:04:57;9.83;;;5.33;;
13816;SDS011;6979;52.116;5.286;2023-01-31T04:07:35;19.97;;;6.67;;
13816;SDS011;6979;52.116;5.286;2023-01-31T04:10:05;11.53;;;6.30;;
13816;SDS011;6979;52.116;5.286;2023-01-31T04:12:36;12.83;;;5.40;;
13816;SDS011;6979;52.116;5.286;2023-01-31T04:15:04;14.53;;;5.43;;
13816;SDS011;6979;52.116;5.286;2023-01-31T04:17:32;9.90;;;5.07;;
13816;SDS011;6979;52.116;5.286;2023-01-31T04:19:59;10.27;;;5.50;;
13816;SDS011;6979;52.116;5.286;2023-01-31T04:22:26;13.17;;;5.03;;
13816;SDS011;6979;52.116;5.286;2023-01-31T04:24:54;11.47;;;5.30;;
13816;SDS011;6979;52.116;5.286;2023-01-31T04:27:24;11.23;;;6.03;;
13816;SDS011;6979;52.116;5.286;2023-01-31T04:29:51;13.53;;;6.23;;
13816;SDS011;6979;52.116;5.286;2023-01-31T04:32:18;13.10;;;6.10;;
13816;SDS011;6979;52.116;5.286;2023-01-31T04:34:45;9.93;;;5.40;;
13816;SDS011;6979;52.116;5.286;2023-01-31T04:37:11;15.20;;;6.10;;
13816;SDS011;6979;52.116;5.286;2023-01-31T04:39:39;13.33;;;6.10;;
13816;SDS011;6979;52.116;5.286;2023-01-31T04:42:07;13.53;;;7.13;;
13816;SDS011;6979;52.116;5.286;2023-01-31T04:44:34;12.53;;;6.33;;
13816;SDS011;6979;52.116;5.286;2023-01-31T04:47:00;15.03;;;6.30;;
13816;SDS011;6979;52.116;5.286;2023-01-31T04:49:27;14.87;;;6.33;;
13816;SDS011;6979;52.116;5.286;2023-01-31T04:51:54;14.03;;;6.03;;
13816;SDS011;6979;52.116;5.286;2023-01-31T04:54:21;11.90;;;5.97;;
13816;SDS011;6979;52.116;5.286;2023-01-31T04:56:48;14.60;;;6.40;;
13816;SDS011;6979;52.116;5.286;2023-01-31T04:59:16;14.13;;;6.03;;
13816;SDS011;6979;52.116;5.286;2023-01-31T05:01:43;13.27;;;6.17;;
13816;SDS011;6979;52.116;5.286;2023-01-31T05:04:10;14.37;;;7.27;;
13816;SDS011;6979;52.116;5.286;2023-01-31T05:06:37;15.50;;;6.37;;
13816;SDS011;6979;52.116;5.286;2023-01-31T05:09:04;14.40;;;6.60;;
13816;SDS011;6979;52.116;5.286;2023-01-31T05:11:31;17.23;;;6.77;;
13816;SDS011;6979;52.116;5.286;2023-01-31T05:13:58;17.03;;;6.70;;
13816;SDS011;6979;52.116;5.286;2023-01-31T05:16:27;15.30;;;7.07;;
13816;SDS011;6979;52.116;5.286;2023-01-31T05:18:54;18.47;;;7.00;;
13816;SDS011;6979;52.116;5.286;2023-01-31T05:21:20;19.67;;;6.60;;
13816;SDS011;6979;52.116;5.286;2023-01-31T05:23:47;17.13;;;6.80;;
13816;SDS011;6979;52.116;5.286;2023-01-31T05:26:14;17.37;;;7.10;;
13816;SDS011;6979;52.116;5.286;2023-01-31T05:28:41;19.57;;;7.90;;
13816;SDS011;6979;52.116;5.286;2023-01-31T05:31:08;17.50;;;6.80;;
13816;SDS011;6979;52.116;5.286;2023-01-31T05:33:39;13.73;;;7.30;;
13816;SDS011;6979;52.116;5.286;2023-01-31T05:36:07;16.13;;;6.67;;
13816;SDS011;6979;52.116;5.286;2023-01-31T05:38:34;14.30;;;6.90;;
13816;SDS011;6979;52.116;5.286;2023-01-31T05:41:01;17.50;;;6.67;;
13816;SDS011;6979;52.116;5.286;2023-01-31T05:43:28;11.53;;;6.37;;
13816;SDS011;6979;52.116;5.286;2023-01-31T05:45:54;15.40;;;6.97;;
13816;SDS011;6979;52.116;5.286;2023-01-31T05:48:21;14.80;;;7.20;;
13816;SDS011;6979;52.116;5.286;2023-01-31T05:50:49;15.73;;;6.97;;
13816;SDS011;6979;52.116;5.286;2023-01-31T05:53:16;13.90;;;7.13;;
13816;SDS011;6979;52.116;5.286;2023-01-31T05:55:44;15.47;;;7.30;;
13816;SDS011;6979;52.116;5.286;2023-01-31T05:58:10;15.40;;;7.10;;
13816;SDS011;6979;52.116;5.286;2023-01-31T06:00:37;13.03;;;6.00;;
13816;SDS011;6979;52.116;5.286;2023-01-31T06:03:04;17.40;;;7.17;;
13816;SDS011;6979;52.116;5.286;2023-01-31T06:05:31;13.00;;;6.37;;
13816;SDS011;6979;52.116;5.286;2023-01-31T06:08:00;13.57;;;5.70;;
13816;SDS011;6979;52.116;5.286;2023-01-31T06:10:28;17.67;;;7.07;;
13816;SDS011;6979;52.116;5.286;2023-01-31T06:12:55;18.97;;;6.50;;
13816;SDS011;6979;52.116;5.286;2023-01-31T06:15:21;15.87;;;6.10;;
13816;SDS011;6979;52.116;5.286;2023-01-31T06:17:48;13.87;;;5.97;;
13816;SDS011;6979;52.116;5.286;2023-01-31T06:20:15;14.80;;;6.13;;
13816;SDS011;6979;52.116;5.286;2023-01-31T06:22:42;15.13;;;6.33;;
13816;SDS011;6979;52.116;5.286;2023-01-31T06:25:10;19.60;;;7.50;;
13816;SDS011;6979;52.116;5.286;2023-01-31T06:27:37;14.53;;;6.10;;
13816;SDS011;6979;52.116;5.286;2023-01-31T06:30:04;11.47;;;5.90;;
13816;SDS011;6979;52.116;5.286;2023-01-31T06:32:32;17.70;;;6.40;;
13816;SDS011;6979;52.116;5.286;2023-01-31T06:34:58;22.10;;;7.07;;
13816;SDS011;6979;52.116;5.286;2023-01-31T06:37:25;12.90;;;5.60;;
13816;SDS011;6979;52.116;5.286;2023-01-31T06:39:52;16.27;;;6.43;;
13816;SDS011;6979;52.116;5.286;2023-01-31T06:42:20;11.07;;;4.93;;
13816;SDS011;6979;52.116;5.286;2023-01-31T06:44:47;12.23;;;4.60;;
13816;SDS011;6979;52.116;5.286;2023-01-31T06:47:14;14.00;;;5.70;;
13816;SDS011;6979;52.116;5.286;2023-01-31T06:49:41;11.37;;;5.60;;
13816;SDS011;6979;52.116;5.286;2023-01-31T06:52:08;15.27;;;5.93;;
13816;SDS011;6979;52.116;5.286;2023-01-31T06:54:34;16.53;;;6.67;;
13816;SDS011;6979;52.116;5.286;2023-01-31T06:57:01;14.17;;;5.37;;
13816;SDS011;6979;52.116;5.286;2023-01-31T06:59:29;10.40;;;5.37;;
13816;SDS011;6979;52.116;5.286;2023-01-31T07:01:56;12.10;;;5.50;;
13816;SDS011;6979;52.116;5.286;2023-01-31T07:04:24;13.27;;;5.33;;
13816;SDS011;6979;52.116;5.286;2023-01-31T07:06:51;11.30;;;5.00;;
13816;SDS011;6979;52.116;5.286;2023-01-31T07:09:18;9.93;;;5.23;;
13816;SDS011;6979;52.116;5.286;2023-01-31T07:11:45;16.93;;;5.90;;
13816;SDS011;6979;52.116;5.286;2023-01-31T07:14:12;10.57;;;5.50;;
13816;SDS011;6979;52.116;5.286;2023-01-31T07:16:40;16.13;;;5.63;;
13816;SDS011;6979;52.116;5.286;2023-01-31T07:19:07;17.10;;;5.67;;
13816;SDS011;6979;52.116;5.286;2023-01-31T07:21:34;16.77;;;5.97;;
13816;SDS011;6979;52.116;5.286;2023-01-31T07:24:03;16.43;;;5.90;;
13816;SDS011;6979;52.116;5.286;2023-01-31T07:26:30;13.97;;;5.17;;
13816;SDS011;6979;52.116;5.286;2023-01-31T07:28:57;15.07;;;5.20;;
13816;SDS011;6979;52.116;5.286;2023-01-31T07:31:24;12.17;;;4.93;;
13816;SDS011;6979;52.116;5.286;2023-01-31T07:33:52;13.70;;;5.20;;
13816;SDS011;6979;52.116;5.286;2023-01-31T07:36:19;12.70;;;4.87;;
13816;SDS011;6979;52.116;5.286;2023-01-31T07:38:51;12.70;;;4.97;;
13816;SDS011;6979;52.116;5.286;2023-01-31T07:41:20;13.63;;;6.10;;
13816;SDS011;6979;52.116;5.286;2023-01-31T07:43:46;17.70;;;5.03;;
13816;SDS011;6979;52.116;5.286;2023-01-31T07:46:13;12.87;;;5.37;;
13816;SDS011;6979;52.116;5.286;2023-01-31T07:48:40;11.47;;;5.03;;
13816;SDS011;6979;52.116;5.286;2023-01-31T07:51:09;12.57;;;5.67;;
13816;SDS011;6979;52.116;5.286;2023-01-31T07:53:37;14.73;;;5.40;;
13816;SDS011;6979;52.116;5.286;2023-01-31T07:56:10;12.37;;;5.37;;
13816;SDS011;6979;52.116;5.286;2023-01-31T07:58:38;9.13;;;4.47;;
13816;SDS011;6979;52.116;5.286;2023-01-31T08:01:06;10.00;;;4.73;;
13816;SDS011;6979;52.116;5.286;2023-01-31T08:03:53;15.90;;;5.10;;
13816;SDS011;6979;52.116;5.286;2023-01-31T08:06:21;14.07;;;5.53;;
13816;SDS011;6979;52.116;5.286;2023-01-31T08:08:48;9.30;;;4.20;;
13816;SDS011;6979;52.116;5.286;2023-01-31T08:11:15;9.93;;;4.83;;
13816;SDS011;6979;52.116;5.286;2023-01-31T08:13:42;11.03;;;5.10;;
13816;SDS011;6979;52.116;5.286;2023-01-31T08:16:08;9.67;;;4.83;;
13816;SDS011;6979;52.116;5.286;2023-01-31T08:18:37;11.03;;;4.63;;
13816;SDS011;6979;52.116;5.286;2023-01-31T08:21:04;14.50;;;8.47;;
13816;SDS011;6979;52.116;5.286;2023-01-31T08:23:34;13.47;;;5.50;;
13816;SDS011;6979;52.116;5.286;2023-01-31T08:26:04;6.30;;;4.10;;
13816;SDS011;6979;52.116;5.286;2023-01-31T08:28:35;16.17;;;5.20;;
13816;SDS011;6979;52.116;5.286;2023-01-31T08:31:03;12.33;;;5.23;;
13816;SDS011;6979;52.116;5.286;2023-01-31T08:33:31;11.37;;;5.37;;
13816;SDS011;6979;52.116;5.286;2023-01-31T08:36:06;13.07;;;4.67;;
13816;SDS011;6979;52.116;5.286;2023-01-31T08:38:35;16.63;;;4.70;;
13816;SDS011;6979;52.116;5.286;2023-01-31T08:41:03;11.50;;;4.93;;
13816;SDS011;6979;52.116;5.286;2023-01-31T08:43:30;9.57;;;3.87;;
13816;SDS011;6979;52.116;5.286;2023-01-31T08:45:57;13.33;;;4.03;;
13816;SDS011;6979;52.116;5.286;2023-01-31T08:48:24;12.90;;;5.40;;
13816;SDS011;6979;52.116;5.286;2023-01-31T08:50:51;12.37;;;4.40;;
13816;SDS011;6979;52.116;5.286;2023-01-31T08:53:17;10.43;;;4.43;;
13816;SDS011;6979;52.116;5.286;2023-01-31T08:55:46;10.23;;;4.27;;
13816;SDS011;6979;52.116;5.286;2023-01-31T08:58:13;18.40;;;5.33;;
13816;SDS011;6979;52.116;5.286;2023-01-31T09:00:39;12.57;;;4.63;;
13816;SDS011;6979;52.116;5.286;2023-01-31T09:03:06;12.00;;;4.70;;
13816;SDS011;6979;52.116;5.286;2023-01-31T09:05:40;11.00;;;5.43;;
13816;SDS011;6979;52.116;5.286;2023-01-31T09:08:07;10.33;;;4.43;;
13816;SDS011;6979;52.116;5.286;2023-01-31T09:10:34;13.47;;;4.67;;
13816;SDS011;6979;52.116;5.286;2023-01-31T09:13:02;13.07;;;5.63;;
13816;SDS011;6979;52.116;5.286;2023-01-31T09:15:30;12.93;;;4.83;;
13816;SDS011;6979;52.116;5.286;2023-01-31T09:17:57;12.47;;;4.90;;
13816;SDS011;6979;52.116;5.286;2023-01-31T09:20:27;11.17;;;4.63;;
13816;SDS011;6979;52.116;5.286;2023-01-31T09:22:53;13.40;;;4.47;;
13816;SDS011;6979;52.116;5.286;2023-01-31T09:25:20;13.80;;;5.33;;
13816;SDS011;6979;52.116;5.286;2023-01-31T09:27:47;14.80;;;5.27;;
13816;SDS011;6979;52.116;5.286;2023-01-31T09:30:19;11.80;;;4.20;;
13816;SDS011;6979;52.116;5.286;2023-01-31T09:32:46;11.67;;;4.47;;
13816;SDS011;6979;52.116;5.286;2023-01-31T09:35:14;9.23;;;4.50;;
13816;SDS011;6979;52.116;5.286;2023-01-31T09:37:43;11.40;;;4.17;;
13816;SDS011;6979;52.116;5.286;2023-01-31T09:40:10;11.30;;;5.00;;
13816;SDS011;6979;52.116;5.286;2023-01-31T09:42:46;15.63;;;5.27;;
13816;SDS011;6979;52.116;5.286;2023-01-31T09:45:17;14.70;;;5.20;;
13816;SDS011;6979;52.116;5.286;2023-01-31T09:47:54;12.43;;;5.40;;
13816;SDS011;6979;52.116;5.286;2023-01-31T09:50:26;11.70;;;5.67;;
13816;SDS011;6979;52.116;5.286;2023-01-31T09:52:58;12.10;;;5.67;;
13816;SDS011;6979;52.116;5.286;2023-01-31T09:55:26;9.33;;;4.73;;
13816;SDS011;6979;52.116;5.286;2023-01-31T09:58:02;12.00;;;5.90;;
13816;SDS011;6979;52.116;5.286;2023-01-31T10:00:36;7.37;;;5.03;;
13816;SDS011;6979;52.116;5.286;2023-01-31T10:03:17;9.87;;;5.37;;
13816;SDS011;6979;52.116;5.286;2023-01-31T10:05:58;11.93;;;5.00;;
13816;SDS011;6979;52.116;5.286;2023-01-31T10:08:36;18.37;;;5.87;;
13816;SDS011;6979;52.116;5.286;2023-01-31T10:11:09;12.73;;;5.37;;
13816;SDS011;6979;52.116;5.286;2023-01-31T10:13:44;12.77;;;5.07;;
13816;SDS011;6979;52.116;5.286;2023-01-31T10:16:16;10.63;;;5.10;;
13816;SDS011;6979;52.116;5.286;2023-01-31T10:18:53;9.23;;;5.30;;
13816;SDS011;6979;52.116;5.286;2023-01-31T10:21:26;13.53;;;4.83;;
13816;SDS011;6979;52.116;5.286;2023-01-31T10:23:59;14.93;;;5.13;;
13816;SDS011;6979;52.116;5.286;2023-01-31T10:26:30;13.87;;;5.33;;
13816;SDS011;6979;52.116;5.286;2023-01-31T10:29:02;11.03;;;4.63;;
13816;SDS011;6979;52.116;5.286;2023-01-31T10:31:37;10.43;;;4.53;;
13816;SDS011;6979;52.116;5.286;2023-01-31T10:34:09;17.70;;;5.77;;
13816;SDS011;6979;52.116;5.286;2023-01-31T10:36:41;8.03;;;4.60;;
13816;SDS011;6979;52.116;5.286;2023-01-31T10:39:17;13.87;;;5.27;;
13816;SDS011;6979;52.116;5.286;2023-01-31T10:41:54;10.87;;;4.73;;
13816;SDS011;6979;52.116;5.286;2023-01-31T10:44:43;11.27;;;5.87;;
13816;SDS011;6979;52.116;5.286;2023-01-31T10:47:19;13.57;;;4.90;;
13816;SDS011;6979;52.116;5.286;2023-01-31T10:49:50;12.13;;;5.20;;
13816;SDS011;6979;52.116;5.286;2023-01-31T10:52:26;10.63;;;4.20;;
13816;SDS011;6979;52.116;5.286;2023-01-31T10:55:11;10.63;;;4.77;;
13816;SDS011;6979;52.116;5.286;2023-01-31T10:57:51;11.57;;;4.73;;
13816;SDS011;6979;52.116;5.286;2023-01-31T11:00:20;11.77;;;5.03;;
13816;SDS011;6979;52.116;5.286;2023-01-31T11:02:52;10.07;;;4.37;;
13816;SDS011;6979;52.116;5.286;2023-01-31T11:05:20;9.73;;;3.93;;
13816;SDS011;6979;52.116;5.286;2023-01-31T11:07:50;11.77;;;4.63;;
13816;SDS011;6979;52.116;5.286;2023-01-31T11:10:20;8.10;;;3.93;;
13816;SDS011;6979;52.116;5.286;2023-01-31T11:12:53;13.60;;;4.73;;
13816;SDS011;6979;52.116;5.286;2023-01-31T11:15:22;13.60;;;5.03;;
13816;SDS011;6979;52.116;5.286;2023-01-31T11:17:55;12.90;;;4.20;;
13816;SDS011;6979;52.116;5.286;2023-01-31T11:20:26;13.43;;;4.30;;
13816;SDS011;6979;52.116;5.286;2023-01-31T11:22:56;10.60;;;3.70;;
13816;SDS011;6979;52.116;5.286;2023-01-31T11:25:25;9.40;;;4.47;;
13816;SDS011;6979;52.116;5.286;2023-01-31T11:27:56;13.37;;;5.50;;
13816;SDS011;6979;52.116;5.286;2023-01-31T11:30:27;13.03;;;4.60;;
13816;SDS011;6979;52.116;5.286;2023-01-31T11:32:57;8.93;;;4.57;;
13816;SDS011;6979;52.116;5.286;2023-01-31T11:35:25;10.07;;;3.93;;
13816;SDS011;6979;52.116;5.286;2023-01-31T11:37:54;14.37;;;4.20;;
13816;SDS011;6979;52.116;5.286;2023-01-31T11:40:27;8.93;;;4.80;;
13816;SDS011;6979;52.116;5.286;2023-01-31T11:42:56;12.40;;;4.60;;
13816;SDS011;6979;52.116;5.286;2023-01-31T11:45:24;10.80;;;4.03;;
13816;SDS011;6979;52.116;5.286;2023-01-31T11:47:54;8.77;;;3.60;;
13816;SDS011;6979;52.116;5.286;2023-01-31T11:50:26;8.23;;;4.03;;
13816;SDS011;6979;52.116;5.286;2023-01-31T11:52:58;13.93;;;4.57;;
13816;SDS011;6979;52.116;5.286;2023-01-31T11:55:27;11.73;;;5.73;;
13816;SDS011;6979;52.116;5.286;2023-01-31T11:58:02;9.73;;;4.50;;
13816;SDS011;6979;52.116;5.286;2023-01-31T12:00:42;12.23;;;3.70;;
13816;SDS011;6979;52.116;5.286;2023-01-31T12:03:17;12.50;;;3.83;;
13816;SDS011;6979;52.116;5.286;2023-01-31T12:05:45;9.27;;;4.17;;
13816;SDS011;6979;52.116;5.286;2023-01-31T12:08:24;12.50;;;4.40;;
13816;SDS011;6979;52.116;5.286;2023-01-31T12:10:54;10.77;;;3.50;;
13816;SDS011;6979;52.116;5.286;2023-01-31T12:13:21;10.00;;;3.67;;
13816;SDS011;6979;52.116;5.286;2023-01-31T12:15:50;9.13;;;3.47;;
13816;SDS011;6979;52.116;5.286;2023-01-31T12:18:26;11.00;;;4.00;;
13816;SDS011;6979;52.116;5.286;2023-01-31T12:21:05;12.93;;;4.43;;
13816;SDS011;6979;52.116;5.286;2023-01-31T12:23:38;9.37;;;3.90;;
13816;SDS011;6979;52.116;5.286;2023-01-31T12:26:15;10.27;;;3.57;;
13816;SDS011;6979;52.116;5.286;2023-01-31T12:28:51;9.10;;;3.17;;
13816;SDS011;6979;52.116;5.286;2023-01-31T12:31:35;7.00;;;3.43;;
13816;SDS011;6979;52.116;5.286;2023-01-31T12:34:26;8.57;;;4.33;;
13816;SDS011;6979;52.116;5.286;2023-01-31T12:37:11;7.80;;;3.30;;
13816;SDS011;6979;52.116;5.286;2023-01-31T12:39:50;11.67;;;4.07;;
13816;SDS011;6979;52.116;5.286;2023-01-31T12:42:40;7.03;;;2.93;;
13816;SDS011;6979;52.116;5.286;2023-01-31T12:45:29;9.37;;;3.60;;
13816;SDS011;6979;52.116;5.286;2023-01-31T12:51:00;10.40;;;3.67;;
13816;SDS011;6979;52.116;5.286;2023-01-31T12:53:40;7.17;;;3.83;;
13816;SDS011;6979;52.116;5.286;2023-01-31T12:56:26;6.37;;;3.10;;
13816;SDS011;6979;52.116;5.286;2023-01-31T12:59:08;10.93;;;4.63;;
13816;SDS011;6979;52.116;5.286;2023-01-31T13:01:47;11.40;;;4.33;;
13816;SDS011;6979;52.116;5.286;2023-01-31T13:04:25;10.53;;;3.53;;
13816;SDS011;6979;52.116;5.286;2023-01-31T13:07:03;6.47;;;3.30;;
13816;SDS011;6979;52.116;5.286;2023-01-31T13:09:35;11.67;;;4.33;;
13816;SDS011;6979;52.116;5.286;2023-01-31T13:12:04;6.63;;;3.67;;
13816;SDS011;6979;52.116;5.286;2023-01-31T13:14:35;10.50;;;3.97;;
13816;SDS011;6979;52.116;5.286;2023-01-31T13:17:06;6.80;;;3.13;;
13816;SDS011;6979;52.116;5.286;2023-01-31T13:19:37;9.97;;;4.20;;
13816;SDS011;6979;52.116;5.286;2023-01-31T13:22:13;8.07;;;3.33;;
13816;SDS011;6979;52.116;5.286;2023-01-31T13:24:46;6.97;;;3.20;;
13816;SDS011;6979;52.116;5.286;2023-01-31T13:27:18;6.17;;;3.50;;
13816;SDS011;6979;52.116;5.286;2023-01-31T13:29:50;8.80;;;3.50;;
13816;SDS011;6979;52.116;5.286;2023-01-31T13:32:25;7.47;;;3.07;;
13816;SDS011;6979;52.116;5.286;2023-01-31T13:34:56;11.30;;;4.27;;
13816;SDS011;6979;52.116;5.286;2023-01-31T13:37:28;7.10;;;3.90;;
13816;SDS011;6979;52.116;5.286;2023-01-31T13:39:58;6.20;;;3.30;;
13816;SDS011;6979;52.116;5.286;2023-01-31T13:42:29;6.63;;;3.80;;
13816;SDS011;6979;52.116;5.286;2023-01-31T13:44:59;10.57;;;3.50;;
13816;SDS011;6979;52.116;5.286;2023-01-31T13:47:30;10.27;;;3.77;;
13816;SDS011;6979;52.116;5.286;2023-01-31T13:50:04;8.53;;;3.17;;
13816;SDS011;6979;52.116;5.286;2023-01-31T13:52:40;10.03;;;3.03;;
13816;SDS011;6979;52.116;5.286;2023-01-31T13:55:14;8.60;;;3.63;;
13816;SDS011;6979;52.116;5.286;2023-01-31T13:57:45;6.93;;;3.53;;
13816;SDS011;6979;52.116;5.286;2023-01-31T14:00:28;8.57;;;3.80;;
13816;SDS011;6979;52.116;5.286;2023-01-31T14:03:06;8.10;;;3.67;;
13816;SDS011;6979;52.116;5.286;2023-01-31T14:05:50;7.43;;;3.30;;
13816;SDS011;6979;52.116;5.286;2023-01-31T14:08:30;7.17;;;2.90;;
13816;SDS011;6979;52.116;5.286;2023-01-31T14:11:06;8.23;;;3.13;;
13816;SDS011;6979;52.116;5.286;2023-01-31T14:14:19;7.23;;;3.30;;
13816;SDS011;6979;52.116;5.286;2023-01-31T14:16:53;10.07;;;3.67;;
13816;SDS011;6979;52.116;5.286;2023-01-31T14:22:38;5.23;;;2.70;;
13816;SDS011;6979;52.116;5.286;2023-01-31T14:25:12;5.90;;;2.87;;
13816;SDS011;6979;52.116;5.286;2023-01-31T14:27:40;4.50;;;2.63;;
13816;SDS011;6979;52.116;5.286;2023-01-31T14:30:33;6.07;;;2.80;;
13816;SDS011;6979;52.116;5.286;2023-01-31T14:33:18;9.80;;;2.63;;
13816;SDS011;6979;52.116;5.286;2023-01-31T14:35:55;5.73;;;2.63;;
13816;SDS011;6979;52.116;5.286;2023-01-31T14:42:08;8.47;;;2.83;;
13816;SDS011;6979;52.116;5.286;2023-01-31T14:44:50;5.27;;;2.33;;
13816;SDS011;6979;52.116;5.286;2023-01-31T14:47:32;6.07;;;2.20;;
13816;SDS011;6979;52.116;5.286;2023-01-31T14:50:15;7.07;;;2.90;;
13816;SDS011;6979;52.116;5.286;2023-01-31T14:53:00;7.60;;;2.87;;
13816;SDS011;6979;52.116;5.286;2023-01-31T14:55:38;7.77;;;2.97;;
13816;SDS011;6979;52.116;5.286;2023-01-31T14:58:17;8.77;;;2.70;;
13816;SDS011;6979;52.116;5.286;2023-01-31T15:00:48;6.60;;;2.53;;
13816;SDS011;6979;52.116;5.286;2023-01-31T15:03:18;5.27;;;2.83;;
13816;SDS011;6979;52.116;5.286;2023-01-31T15:05:49;6.93;;;2.40;;
13816;SDS011;6979;52.116;5.286;2023-01-31T15:08:36;9.17;;;2.57;;
13816;SDS011;6979;52.116;5.286;2023-01-31T15:11:11;5.13;;;2.27;;
13816;SDS011;6979;52.116;5.286;2023-01-31T15:14:01;12.73;;;3.17;;
13816;SDS011;6979;52.116;5.286;2023-01-31T15:16:56;6.17;;;3.10;;
13816;SDS011;6979;52.116;5.286;2023-01-31T15:19:25;5.30;;;2.57;;
13816;SDS011;6979;52.116;5.286;2023-01-31T15:21:57;6.13;;;2.50;;
13816;SDS011;6979;52.116;5.286;2023-01-31T15:24:28;4.93;;;2.23;;
13816;SDS011;6979;52.116;5.286;2023-01-31T15:26:58;8.67;;;3.23;;
13816;SDS011;6979;52.116;5.286;2023-01-31T15:29:28;8.70;;;3.60;;
13816;SDS011;6979;52.116;5.286;2023-01-31T15:31:59;5.70;;;2.90;;
13816;SDS011;6979;52.116;5.286;2023-01-31T15:34:34;4.47;;;2.63;;